Stations météo

réclame
Mon MeteoGroup
Lyneham, Grande-Bretagne (3740): Température de l'air & dewpoint: 12.11.2018 04:00:00 - 18.11.2018 04:00:00 (GMT)Lyneham, Grande-Bretagne (3740): Température de l'air -20cm & Température de l'air -100cm: 12.11.2018 04:00:00 - 18.11.2018 04:00:00 (GMT)Lyneham, Grande-Bretagne (3740): Vitesse du vent & gusts: 12.11.2018 04:00:00 - 18.11.2018 04:00:00 (GMT)Lyneham, Grande-Bretagne (3740): Direction du vent: 12.11.2018 04:00:00 - 18.11.2018 04:00:00 (GMT)Lyneham, Grande-Bretagne (3740): reduced air pressure: 12.11.2018 04:00:00 - 18.11.2018 04:00:00 (GMT)Lyneham, Grande-Bretagne (3740): Ensoleillement: 12.11.2018 04:00:00 - 18.11.2018 04:00:00 (GMT)Lyneham, Grande-Bretagne (3740): Quantités de précipitations: 12.11.2018 04:00:00 - 18.11.2018 04:00:00 (GMT)
Date & Time tt [°C] td [°C] tt -20cm [°C] tt -100cm [°C] ff [km/h] ff [knt] fx [km/h] fx [knt] dd ppp [hPa] sd [min] rr [mm]
18.11.2018 04:00:00 - - - - - - - - - - - -
18.11.2018 03:00:00 - - - - - - - - - - - -
18.11.2018 02:00:00 - - - - - - - - - - - -
18.11.2018 01:00:00 - - - - - - - - - - - -
18.11.2018 00:00:00 - - - - - - - - - - - -
17.11.2018 23:00:00 4,4 3,6 - - 11 6 - - NNE 1027,2 0 0,0
17.11.2018 22:00:00 4,7 3,7 - - 15 8 - - NE 1027,1 0 0,0
17.11.2018 21:00:00 5,1 3,8 - - 15 8 - - NE 1026,8 0 0,0
17.11.2018 20:00:00 5,8 4,3 - - 16 9 - - ENE 1026,5 0 0,0
17.11.2018 19:00:00 6,5 5,0 - - 16 9 - - ENE 1026,0 0 0,0
17.11.2018 18:00:00 7,2 5,4 - - 16 9 - - NE 1025,7 0 0,0
17.11.2018 17:00:00 8,3 4,9 - - 24 13 - - ENE 1025,3 0 0,0
17.11.2018 16:00:00 8,7 4,9 - - 15 8 - - ENE 1025,4 48 0,0
17.11.2018 15:00:00 9,4 4,8 - - 16 9 - - ENE 1025,5 60 0,0
17.11.2018 14:00:00 9,5 4,8 - - 22 12 - - ENE 1025,7 60 0,0
17.11.2018 13:00:00 8,9 5,0 - - 21 11 - - ENE 1026,0 60 0,0
17.11.2018 12:00:00 8,2 5,6 - - 16 9 - - ENE 1026,2 60 0,0
17.11.2018 11:00:00 6,8 5,2 - - 22 12 - - ENE 1026,5 48 0,0
17.11.2018 10:00:00 6,8 5,4 - - 21 11 - - E 1026,6 0 0,0
17.11.2018 09:00:00 7,3 5,9 8,7 11,0 21 11 - - E 1026,4 0 0,0
17.11.2018 08:00:00 8,0 7,5 - - 16 9 - - E 1025,8 0 0,0
17.11.2018 07:00:00 7,8 7,8 - - 16 9 - - ENE 1025,6 0 0,0
17.11.2018 06:00:00 7,5 7,5 - - 16 9 - - ENE 1025,5 0 0,0
17.11.2018 05:00:00 7,5 7,4 - - 22 12 - - E 1025,4 0 0,0
17.11.2018 04:00:00 7,6 7,6 - - 21 11 - - E 1025,6 0 0,0
17.11.2018 03:00:00 7,6 7,6 - - 16 9 - - E 1025,8 0 0,0
17.11.2018 02:00:00 7,9 7,8 - - 15 8 - - E 1026,0 0 0,0
17.11.2018 01:00:00 8,0 7,9 - - 15 8 - - E 1025,9 0 0,0
17.11.2018 00:00:00 8,2 8,2 - - 13 7 - - E 1025,8 - -
16.11.2018 23:00:00 8,7 8,7 - - 9 5 - - E 1025,6 0 0,2
16.11.2018 22:00:00 8,6 8,6 - - 11 6 - - E 1025,6 0 0,0
16.11.2018 21:00:00 8,5 8,4 - - 15 8 - - E 1025,2 0 0,0
16.11.2018 20:00:00 8,7 8,5 - - 16 9 - - E 1025,2 0 0,0
16.11.2018 19:00:00 9,1 8,9 - - 13 7 - - ESE 1025,3 0 0,0
16.11.2018 18:00:00 9,3 9,1 - - 13 7 - - ESE 1025,1 0 0,0
16.11.2018 17:00:00 9,7 9,4 - - 16 9 - - E 1024,7 0 0,0
16.11.2018 16:00:00 10,3 9,9 - - 15 8 - - E 1024,3 0 0,0
16.11.2018 15:00:00 11,2 10,2 - - 15 8 - - E 1024,2 0 0,0
16.11.2018 14:00:00 11,9 10,8 - - 13 7 - - E 1024,2 0 0,0
16.11.2018 13:00:00 12,4 11,5 - - 15 8 - - ESE 1024,3 0 0,0
16.11.2018 12:00:00 12,0 11,3 - - 13 7 - - ESE 1024,6 0 0,0
16.11.2018 11:00:00 12,0 11,4 - - 13 7 - - ESE 1024,6 0 0,0
16.11.2018 10:00:00 11,8 11,4 - - 11 6 - - E 1024,7 0 0,0
16.11.2018 09:00:00 11,3 11,0 8,5 11,0 5 3 - - NE 1024,7 0 0,0
16.11.2018 08:00:00 11,0 10,8 - - 8 4 - - ESE 1024,4 0 0,0
16.11.2018 07:00:00 11,1 10,8 - - 5 3 - - SE 1023,6 0 0,2
16.11.2018 06:00:00 11,3 10,8 - - 5 3 - - SE 1023,1 0 0,0
16.11.2018 05:00:00 11,4 10,8 - - 9 5 - - SE 1022,3 0 0,0
16.11.2018 04:00:00 11,2 10,9 - - 9 5 - - SE 1022,0 0 0,0
16.11.2018 03:00:00 11,3 11,1 - - 8 4 - - SSE 1022,1 0 0,0
16.11.2018 02:00:00 11,2 11,1 - - 9 5 - - SE 1021,9 0 0,0
16.11.2018 01:00:00 11,4 11,2 - - 5 3 - - ESE 1021,7 0 0,0
16.11.2018 00:00:00 11,7 11,5 - - 8 4 - - S 1021,8 - 0,2
15.11.2018 23:00:00 11,8 11,5 - - 9 5 - - SSE 1021,2 0 0,0
15.11.2018 22:00:00 12,0 11,6 - - 11 6 - - SSE 1020,9 0 0,0
15.11.2018 21:00:00 11,8 11,4 - - 16 9 - - SSE 1020,0 0 0,0
15.11.2018 20:00:00 11,7 11,3 - - 15 8 - - SSE 1019,7 0 0,0
15.11.2018 19:00:00 12,0 11,1 - - 16 9 - - SSE 1019,7 0 0,0
15.11.2018 18:00:00 12,2 11,3 - - 18 10 - - SSE 1019,2 0 0,0
15.11.2018 17:00:00 12,2 11,2 - - 9 5 - - S 1019,2 0 0,0
15.11.2018 16:00:00 12,5 11,3 - - 21 11 - - SSE 1018,6 0 0,0
15.11.2018 15:00:00 13,6 11,8 - - 13 7 - - SSE 1018,8 6 0,0
15.11.2018 14:00:00 13,1 11,6 - - 18 10 - - SSE 1019,1 0 0,0
15.11.2018 13:00:00 13,1 11,4 - - 9 5 - - S 1019,2 0 0,0
15.11.2018 12:00:00 12,2 9,8 - - 21 11 - - S 1019,7 6 0,0
15.11.2018 11:00:00 11,9 9,4 - - 24 13 - - SSE 1020,0 6 0,0
15.11.2018 10:00:00 10,9 8,9 - - 21 11 - - SSE 1020,1 12 0,0
15.11.2018 09:00:00 10,3 8,5 8,0 11,2 11 6 - - SSE 1020,0 48 0,0
15.11.2018 08:00:00 8,9 7,7 - - 15 8 - - SSE 1020,1 0 0,0
15.11.2018 07:00:00 10,2 8,2 - - 13 7 - - S 1019,8 0 0,0
15.11.2018 06:00:00 10,8 8,7 - - 11 6 - - S 1019,4 0 0,0
15.11.2018 05:00:00 11,0 9,1 - - 11 6 - - S 1019,3 0 0,0
15.11.2018 04:00:00 10,9 9,5 - - 11 6 - - S 1019,4 0 0,0
15.11.2018 03:00:00 10,6 9,8 - - 11 6 - - SSE 1019,4 0 0,0
15.11.2018 02:00:00 10,5 9,7 - - 8 4 - - S 1019,6 0 0,0
15.11.2018 01:00:00 10,3 9,4 - - 11 6 - - SSE 1019,6 0 0,0
15.11.2018 00:00:00 10,1 9,6 - - 8 4 - - S 1019,8 - 0,0
14.11.2018 23:00:00 9,8 9,3 - - 9 5 - - S 1020,0 0 0,0
14.11.2018 22:00:00 9,8 9,3 - - 9 5 - - S 1020,1 0 0,0
14.11.2018 21:00:00 9,5 9,0 - - 9 5 - - S 1020,3 0 0,0
14.11.2018 20:00:00 8,8 8,0 - - 8 4 - - S 1020,3 0 0,0
14.11.2018 19:00:00 9,0 8,0 - - 11 6 - - S 1020,3 0 0,0
14.11.2018 18:00:00 9,4 7,9 - - 15 8 - - SSE 1020,3 0 0,0
14.11.2018 17:00:00 10,2 7,6 - - 9 5 - - S 1019,8 6 0,0
14.11.2018 16:00:00 12,2 7,2 - - 13 7 - - S 1019,7 54 0,0
14.11.2018 15:00:00 13,5 6,8 - - 15 8 - - SSW 1019,7 60 0,0
14.11.2018 14:00:00 13,7 6,5 - - 18 10 - - SSW 1019,8 60 0,0
14.11.2018 13:00:00 14,1 8,1 - - 16 9 - - SSW 1020,2 54 0,0
14.11.2018 12:00:00 14,0 8,9 - - 21 11 - - SSW 1020,5 18 0,0
14.11.2018 11:00:00 12,3 9,0 - - 16 9 - - SSW 1021,0 0 0,0
14.11.2018 10:00:00 12,0 8,7 - - 16 9 - - SSW 1021,2 6 0,0
14.11.2018 09:00:00 10,4 8,3 7,7 11,2 18 10 - - S 1021,3 6 0,0
14.11.2018 08:00:00 10,4 8,3 - - 21 11 - - S 1021,1 0 0,0
14.11.2018 07:00:00 10,4 8,1 - - 18 10 - - SSW 1020,9 0 0,0
14.11.2018 06:00:00 10,7 8,4 - - 18 10 - - S 1020,6 0 0,0
14.11.2018 05:00:00 10,7 8,1 - - 18 10 - - SSW 1020,7 0 0,0
14.11.2018 04:00:00 10,9 8,0 - - 22 12 - - SSW 1020,7 0 0,0
14.11.2018 03:00:00 11,0 8,4 - - 18 10 - - S 1020,9 0 0,0
14.11.2018 02:00:00 10,8 8,2 - - 21 11 - - S 1021,8 0 0,0
14.11.2018 01:00:00 10,6 8,6 - - 16 9 - - S 1022,6 0 0,0
14.11.2018 00:00:00 10,3 8,4 - - 16 9 - - S 1022,7 - 0,0
13.11.2018 23:00:00 10,0 8,5 - - 16 9 - - S 1023,0 0 0,0
13.11.2018 22:00:00 9,2 7,9 - - 15 8 - - S 1023,4 0 0,0
13.11.2018 21:00:00 9,7 8,2 - - 15 8 - - S 1023,6 0 0,0
13.11.2018 20:00:00 9,4 7,9 - - 15 8 - - S 1023,8 0 0,0
13.11.2018 19:00:00 9,5 7,8 - - 13 7 - - SSW 1023,8 0 0,0
13.11.2018 18:00:00 9,9 7,5 - - 11 6 - - SSW 1023,4 0 0,0
13.11.2018 17:00:00 10,3 6,9 - - 9 5 - - S 1023,2 0 0,0
13.11.2018 16:00:00 10,8 6,3 - - 11 6 - - SSW 1022,6 0 0,0
13.11.2018 15:00:00 11,5 6,3 - - 11 6 - - SW 1022,6 30 0,0
13.11.2018 14:00:00 11,7 6,6 - - 21 11 - - SW 1022,4 48 0,0
13.11.2018 13:00:00 11,3 7,3 - - 18 10 - - SW 1022,3 54 0,0
13.11.2018 12:00:00 11,2 7,6 - - 16 9 - - SW 1021,9 54 0,0
13.11.2018 11:00:00 10,1 7,4 - - 16 9 - - SW 1021,7 48 0,0
13.11.2018 10:00:00 9,2 7,4 - - 9 5 - - SSW 1020,8 42 0,0
13.11.2018 09:00:00 8,1 6,9 7,7 11,2 9 5 - - SSW 1019,9 30 0,0
13.11.2018 08:00:00 6,6 6,0 - - 8 4 - - SSW 1019,0 0 0,0
13.11.2018 07:00:00 6,6 5,7 - - 8 4 - - SSW 1017,8 0 0,0
13.11.2018 06:00:00 7,2 6,1 - - 11 6 - - SW 1016,7 0 0,0
13.11.2018 05:00:00 7,2 6,1 - - 13 7 - - SW 1015,4 0 0,0
13.11.2018 04:00:00 7,0 5,6 - - 11 6 - - SW 1014,6 0 0,0
13.11.2018 03:00:00 7,1 5,3 - - 9 5 - - WSW 1013,8 0 0,0
13.11.2018 02:00:00 7,7 5,2 - - 15 8 - - SW 1013,2 0 0,0
13.11.2018 01:00:00 8,5 6,4 - - 15 8 - - SW 1012,2 0 0,0
13.11.2018 00:00:00 8,2 6,5 - - 11 6 - - SW 1011,8 - 0,0
12.11.2018 23:00:00 8,5 5,5 - - 18 10 - - SW 1011,1 0 0,0
12.11.2018 22:00:00 9,2 6,0 - - 18 10 - - SSW 1010,2 0 0,0
12.11.2018 21:00:00 9,3 7,3 - - 15 8 - - SW 1010,1 0 0,0
12.11.2018 20:00:00 8,9 7,1 - - 15 8 - - S 1009,8 0 0,0
12.11.2018 19:00:00 8,7 7,2 - - 16 9 - - S 1009,8 0 0,0
12.11.2018 18:00:00 9,6 8,0 - - 18 10 - - S 1009,5 0 2,2
12.11.2018 17:00:00 9,2 5,6 - - 15 8 - - SW 1009,5 0 2,8
12.11.2018 16:00:00 11,4 7,2 - - 22 12 - - SSW 1008,5 24 0,0
12.11.2018 15:00:00 12,3 7,2 - - 22 12 46 25 SSW 1007,9 60 0,0
12.11.2018 14:00:00 11,9 8,5 - - 18 10 52 28 SSW 1007,9 18 1,8
12.11.2018 13:00:00 - - - - - - - - - - - 0,0
12.11.2018 12:00:00 - - - - - - - - - - - 0,0
12.11.2018 11:00:00 - - - - - - - - - - - 0,0
12.11.2018 10:00:00 - - - - - - - - - - - 0,0
12.11.2018 09:00:00 - - - - - - - - - - - 0,0
12.11.2018 08:00:00 - - - - - - - - - - - 0,0
12.11.2018 07:00:00 - - - - - - - - - - - 0,0
12.11.2018 06:00:00 - - - - - - - - - - - 0,0
12.11.2018 05:00:00 - - - - - - - - - - - 0,0
12.11.2018 04:00:00 - - - - - - - - - - - 0,0

tt = Température de l'air
td = dewpoint
tt -20cm = Température de l'air -20cm
tt -100cm = Température de l'air -100cm
ff = Vitesse du vent
fx = gusts
dd = Direction du vent
ppp = reduced air pressure
sd = Ensoleillement
rr = Quantités de précipitations

stations d'obs. à proximité